• Join FlightAware (Why Join?)
  • Login
  • US Flag 
05:43AM EDT


 

Airport Tracker/Info


-or-


 

Live Flight TrackerFlight Track Log ✈ AAL963 ✈ 22-Sep-2013 ✈ KDFW - SBGR / GRU

Flight Track Log - Related Links

Times and Time Zones

All times are in EDT time to prevent confusion due to time zone crossing. See the AAL963 flight status page for this flight to view local times or setup timezone preferences in your user account.

Time Position Orientation Groundspeed Altitude Reporting Facility
EDT Latitude Longitude Course Direction KTS MPH feet Rate Location/Type
09:01PM 32.8710 -97.0560 187° South 199 229 1,600  Level FlightAware
09:01PM 32.8480 -97.0620 192° South 209 241 2,400 1,500 Climbing FlightAware
09:01PM 32.8360 -97.0650 192° South 224 258 2,500 720 Climbing FlightAware
09:01PM 32.8150 -97.0710 194° South 246 283 2,800 1,380 Climbing FlightAware
09:02PM 32.7890 -97.0770 191° South 262 302 3,500 1,800 Climbing FlightAware
09:02PM 32.7600 -97.0850 193° South 274 315 4,200 2,160 Climbing FlightAware
09:03PM 32.7340 -97.0910 191° South 274 315 5,100 2,760 Climbing FlightAware
09:03PM 32.7190 -97.0930 186° South 269 310 5,700 2,400 Climbing FlightAware
09:03PM 32.6860 -97.0860 170° South 269 310 6,700 2,160 Climbing FlightAware
09:03PM 32.6760 -97.0800 153° Southeast 272 313 7,000 1,920 Climbing FlightAware
09:04PM 32.6540 -97.0650 150° Southeast 276 318 7,600 1,920 Climbing FlightAware
09:04PM 32.6320 -97.0490 149° Southeast 279 321 8,300 1,920 Climbing FlightAware
09:04PM 32.6100 -97.0330 149° Southeast 281 323 8,900 1,740 Climbing FlightAware
09:05PM 32.5830 -97.0150 151° Southeast 285 328 9,600 1,560 Climbing FlightAware
09:05PM 32.5390 -96.9870 152° Southeast 299 344 10,500 1,200 Climbing FlightAware
09:06PM 32.4990 -96.9590 149° Southeast 328 377 11,000 960 Climbing FlightAware
09:07PM 32.4490 -96.9260 151° Southeast 356 410 11,600 1,080 Climbing FlightAware
09:07PM 32.3990 -96.8920 150° Southeast 376 433 12,300 1,680 Climbing FlightAware
09:08PM 32.3430 -96.8540 150° Southeast 384 442 13,600 2,040 Climbing FlightAware
09:08PM 32.2870 -96.8190 152° Southeast 391 450 14,800 1,920 Climbing FlightAware
09:09PM 32.2240 -96.7920 160° South 400 460 15,900 1,860 Climbing FlightAware
09:09PM 32.1630 -96.7690 162° South 407 468 17,000 1,620 Climbing FlightAware
09:10PM 32.0960 -96.7440 162° South 423 487 17,800 1,320 Climbing FlightAware
09:10PM 32.0809 -96.7378 161° South 426 490 18,000 1,440 Climbing FlightAware ADS-B
09:11PM 32.0040 -96.7086 162° South 438 504 19,000 1,500 Climbing FlightAware ADS-B
09:11PM 31.9343 -96.6822 162° South 439 505 19,900 1,500 Climbing FlightAware ADS-B
09:12PM 31.8633 -96.6552 162° South 450 518 20,800 1,560 Climbing FlightAware ADS-B
09:13PM 31.7909 -96.6253 161° South 458 527 21,800 1,380 Climbing FlightAware ADS-B
09:13PM 31.7267 -96.5986 161° South 464 534 22,400 1,020 Climbing FlightAware ADS-B
09:14PM 31.6620 -96.5720 161° South 479 551 22,900 1,080 Climbing FlightAware ADS-B
09:14PM 31.5816 -96.5393 161° South 484 557 23,700 1,260 Climbing FlightAware ADS-B
09:15PM 31.5050 -96.5090 161° South 487 560 24,500 1,380 Climbing FlightAware
09:15PM 31.4889 -96.5021 160° South 489 563 24,700 1,080 Climbing FlightAware ADS-B
09:16PM 31.4217 -96.4772 162° South 495 570 25,200 960 Climbing FlightAware ADS-B
09:16PM 31.3538 -96.4523 163° South 500 575 25,700 960 Climbing FlightAware ADS-B
09:17PM 31.2844 -96.4266 162° South 507 583 26,200 900 Climbing FlightAware ADS-B
09:17PM 31.2240 -96.4038 162° South 512 589 26,600 840 Climbing FlightAware ADS-B
09:17PM 31.2086 -96.3965 158° South 513 590 26,700 900 Climbing FlightAware ADS-B
09:17PM 31.1957 -96.3890 154° Southeast 516 594 26,800 900 Climbing FlightAware ADS-B
09:18PM 31.1700 -96.3700 148° Southeast 520 598 27,000 660 Climbing FlightAware ADS-B
09:18PM 31.1618 -96.3626 142° Southeast 520 598 27,000 480 Level FlightAware ADS-B
09:18PM 31.1477 -96.3479 138° Southeast 522 601 27,100 960 Climbing FlightAware ADS-B
09:18PM 31.1310 -96.3267 133° Southeast 524 603 27,300 1,020 Climbing FlightAware ADS-B
09:18PM 31.0874 -96.2571 126° Southeast 528 608 27,800 960 Climbing FlightAware ADS-B
09:19PM 31.0442 -96.1864 125° Southeast 532 612 28,300 1,020 Climbing FlightAware ADS-B
09:19PM 31.0001 -96.1139 125° Southeast 534 615 28,900 1,080 Climbing FlightAware ADS-B
09:20PM 30.9559 -96.0419 126° Southeast 537 618 29,400 900 Climbing FlightAware ADS-B
09:20PM 30.9090 -95.9657 126° Southeast 541 623 29,900 1,140 Climbing FlightAware ADS-B
09:21PM 30.8649 -95.8946 126° Southeast 538 619 30,600 1,080 Climbing FlightAware ADS-B
09:21PM 30.8214 -95.8246 126° Southeast 534 615 31,000 360 Climbing FlightAware ADS-B
09:22PM 30.7765 -95.7524 126° Southeast 533 613 31,000  Level FlightAware ADS-B
09:22PM 30.7320 -95.6810 126° Southeast 531 611 31,000  Level FlightAware ADS-B
09:23PM 30.6871 -95.6092 126° Southeast 531 611 31,000  Level FlightAware ADS-B
09:24PM 30.6435 -95.5394 126° Southeast 531 611 31,000  Level FlightAware ADS-B
09:24PM 30.5997 -95.4701 126° Southeast 530 610 31,000  Level FlightAware ADS-B
09:24PM 30.5816 -95.4442 129° Southeast 531 611 31,000  Level FlightAware ADS-B
09:24PM 30.5556 -95.4097 131° Southeast 531 611 31,000  Level FlightAware ADS-B
09:25PM 30.5162 -95.3633 135° Southeast 530 610 31,000  Level FlightAware ADS-B
09:25PM 30.4619 -95.3051 137° Southeast 530 610 31,000  Level FlightAware ADS-B
09:26PM 30.4074 -95.2475 138° Southeast 530 610 31,000  Level FlightAware ADS-B
09:26PM 30.3529 -95.1898 138° Southeast 531 611 31,000  Level FlightAware ADS-B
09:27PM 30.2925 -95.1260 138° Southeast 531 611 31,000  Level FlightAware ADS-B
09:27PM 30.2381 -95.0683 137° Southeast 530 610 31,000  Level FlightAware ADS-B
09:28PM 30.1804 -95.0072 138° Southeast 529 609 31,000  Level FlightAware ADS-B
09:28PM 30.1260 -94.9497 138° Southeast 528 608 31,000  Level FlightAware ADS-B
09:28PM 30.1251 -94.9487 136° Southeast 528 608 31,000  Level FlightAware ADS-B
09:29PM 30.0716 -94.8923 138° Southeast 527 606 31,000  Level FlightAware ADS-B
09:29PM 30.0707 -94.8913 136° Southeast 527 606 31,000  Level FlightAware ADS-B
09:29PM 30.0271 -94.8455 138° Southeast 527 606 31,000  Level FlightAware ADS-B
09:29PM 30.0163 -94.8341 138° Southeast 527 606 31,000  Level FlightAware ADS-B
09:30PM 29.9619 -94.7768 138° Southeast 527 606 31,000  Level FlightAware ADS-B
09:30PM 29.9076 -94.7199 138° Southeast 528 608 31,000  Level FlightAware ADS-B
09:31PM 29.8521 -94.6618 138° Southeast 529 609 31,000  Level FlightAware ADS-B
09:31PM 29.8411 -94.6502 138° Southeast 529 609 31,000  Level FlightAware ADS-B
09:31PM 29.7973 -94.6045 138° Southeast 527 606 31,000  Level FlightAware ADS-B
09:32PM 29.7854 -94.5920 138° Southeast 527 606 31,000  Level FlightAware ADS-B
09:32PM 29.7429 -94.5475 138° Southeast 527 606 31,000  Level FlightAware ADS-B
09:32PM 29.7315 -94.5357 138° Southeast 527 606 31,000  Level FlightAware ADS-B
09:33PM 29.6840 -94.4861 138° Southeast 527 606 31,000  Level FlightAware ADS-B
09:33PM 29.6282 -94.4280 138° Southeast 530 610 31,000  Level FlightAware ADS-B
09:34PM 29.5724 -94.3701 138° Southeast 530 610 31,000  Level FlightAware ADS-B
09:34PM 29.5153 -94.3108 138° Southeast 530 610 31,000  Level FlightAware ADS-B
09:35PM 29.4597 -94.2531 138° Southeast 530 610 31,000  Level FlightAware ADS-B
09:35PM 29.4047 -94.1959 138° Southeast 530 610 31,000  Level FlightAware ADS-B
09:35PM 29.3909 -94.1816 138° Southeast 530 610 31,000  Level FlightAware ADS-B
09:36PM 29.3487 -94.1378 138° Southeast 531 611 31,000  Level FlightAware ADS-B
09:36PM 29.2885 -94.0755 138° Southeast 532 612 31,000  Level FlightAware ADS-B
09:37PM 29.2337 -94.0188 138° Southeast 532 612 31,000  Level FlightAware ADS-B
09:37PM 29.1788 -93.9621 138° Southeast 532 612 31,000  Level FlightAware ADS-B
09:38PM 29.1228 -93.9043 138° Southeast 530 610 31,000  Level FlightAware ADS-B
09:38PM 29.1290 -93.8990 37° Northeast 530 610 31,000  Level FlightAware
09:39PM 29.0770 -93.8430 137° Southeast 530 610 31,000  Level FlightAware
09:39PM 29.0230 -93.7850 137° Southeast 530 610 31,000  Level FlightAware
09:40PM 28.9680 -93.7260 137° Southeast 530 610 31,000  Level FlightAware
09:41PM 28.9130 -93.6680 137° Southeast 530 610 31,000  Level FlightAware
09:41PM 28.8580 -93.6100 137° Southeast 530 610 31,000  Level FlightAware
09:42PM 28.8030 -93.5510 137° Southeast 530 610 31,000  Level FlightAware
09:42PM 28.7480 -93.4930 137° Southeast 530 610 31,000  Level FlightAware
09:43PM 28.6930 -93.4340 137° Southeast 530 610 31,000  Level FlightAware
09:44PM 28.6380 -93.3760 137° Southeast 530 610 31,000  Level FlightAware
09:44PM 28.5830 -93.3180 137° Southeast 530 610 31,000 -120 Level FlightAware
09:45PM 28.3236 -93.0903 137° Southeast 539 620 30,900  Descending Houston Center
09:46PM 28.2111 -92.9758 138° Southeast 543 625 31,000  Climbing Houston Center
09:47PM 28.0992 -92.8639 139° Southeast 539 620 31,000  Level Houston Center
09:48PM 27.9867 -92.7514 139° Southeast 540 621 31,000  Level Houston Center
09:49PM 27.8761 -92.6403 138° Southeast 535 616 31,000  Level Houston Center
09:50PM 27.7625 -92.5375 141° Southeast 527 606 31,000 -60 Level Houston Center
09:51PM 27.6058 -92.4483 153° Southeast 524 603 30,900  Descending Houston Center
09:52PM 27.4797 -92.3697 151° Southeast 520 598 31,000  Climbing Houston Center
09:53PM 27.3494 -92.2989 154° Southeast 519 597 31,000  Level Houston Center
09:54PM 27.2214 -92.2267 153° Southeast 517 595 31,000  Level Houston Center
09:55PM 27.0939 -92.1539 153° Southeast 515 593 31,000  Level Houston Center
09:56PM 26.9683 -92.0750 151° Southeast 515 593 31,000  Level Houston Center
09:58PM 26.8449 -91.9345 135° Southeast  Level Estimated
10:05PM 26.1777 -91.1834 135° Southeast  Level Estimated
10:06PM 26.0821 -91.0769 135° Southeast  Level Estimated
10:07PM 25.9864 -90.9704 135° Southeast  Level Estimated
10:08PM 25.8906 -90.8642 135° Southeast  Level Estimated
10:09PM 25.7948 -90.7581 135° Southeast  Level Estimated
10:10PM 25.6988 -90.6522 135° Southeast  Level Estimated
10:11PM 25.6028 -90.5465 135° Southeast  Level Estimated
10:12PM 25.5067 -90.4409 135° Southeast  Level Estimated
10:13PM 25.4106 -90.3355 135° Southeast  Level Estimated
10:14PM 25.3143 -90.2303 135° Southeast  Level Estimated
10:15PM 25.2180 -90.1253 135° Southeast  Level Estimated
10:16PM 25.1216 -90.0204 135° Southeast  Level Estimated
10:17PM 25.0252 -89.9157 135° Southeast  Level Estimated
10:18PM 24.9286 -89.8111 136° Southeast  Level Estimated
10:19PM 24.8320 -89.7067 136° Southeast  Level Estimated
10:20PM 24.7380 -89.6053 136° Southeast  Level Estimated
10:21PM 24.6438 -89.5040 136° Southeast  Level Estimated
10:22PM 24.5496 -89.4028 136° Southeast  Level Estimated
10:23PM 24.4553 -89.3019 136° Southeast  Level Estimated
10:23PM 24.0180 -89.4870 136° Southeast 504 580 31,000  Level FlightAware
10:24PM 23.9300 -89.4200 145° Southeast 504 580 31,000  Level FlightAware
10:25PM 23.8710 -89.3760 146° Southeast 504 580 31,000  Level FlightAware
10:25PM 23.7800 -89.3090 146° Southeast 503 579 31,000  Level FlightAware
10:26PM 23.7220 -89.2650 145° Southeast 502 578 31,000  Level FlightAware
10:27PM 23.6400 -89.2020 145° Southeast 503 579 31,000  Level FlightAware
10:27PM 23.5670 -89.1490 146° Southeast 501 577 31,000  Level FlightAware
10:28PM 23.4970 -89.0960 145° Southeast 503 579 31,000  Level FlightAware
10:29PM 23.3690 -89.0010 146° Southeast 500 575 31,000  Level FlightAware
10:29PM 23.3100 -88.9560 145° Southeast 499 574 31,000  Level FlightAware
10:30PM 23.2710 -88.9270 146° Southeast 499 574 31,000  Level FlightAware
10:30PM 23.2090 -88.8810 146° Southeast 499 574 31,000  Level FlightAware
10:31PM 23.0870 -88.7910 146° Southeast 497 572 31,000  Level FlightAware
10:32PM 23.0300 -88.7480 145° Southeast 497 572 31,000  Level FlightAware
10:32PM 22.9880 -88.7170 146° Southeast 497 572 31,000  Level FlightAware
10:33PM 22.9060 -88.6560 146° Southeast 500 575 31,000  Level FlightAware
10:33PM 22.8430 -88.6100 146° Southeast 500 575 31,000  Level FlightAware
10:34PM 22.7720 -88.5580 146° Southeast 500 575 31,000  Level FlightAware
10:35PM 22.6920 -88.4990 146° Southeast 500 575 31,000  Level FlightAware
10:35PM 22.6190 -88.4440 145° Southeast 500 575 31,000  Level FlightAware
10:36PM 22.5640 -88.3950 141° Southeast 501 577 31,000  Level FlightAware
10:37PM 22.4990 -88.3290 137° Southeast 502 578 31,000  Level FlightAware
10:37PM 22.3950 -88.2230 137° Southeast 498 573 31,000  Level FlightAware
10:38PM 22.3370 -88.1640 137° Southeast 499 574 31,000  Level FlightAware
10:38PM 22.2760 -88.1030 137° Southeast 499 574 31,000  Level FlightAware
10:39PM 22.2160 -88.0420 137° Southeast 500 575 31,000  Level FlightAware
10:40PM 22.1560 -87.9810 137° Southeast 500 575 31,000  Level FlightAware
10:40PM 22.0920 -87.9170 137° Southeast 501 577 31,000  Level FlightAware
10:41PM 22.0350 -87.8590 137° Southeast 500 575 31,000  Level FlightAware
10:42PM 21.9670 -87.7910 137° Southeast 499 574 31,000  Level FlightAware
10:42PM 21.9030 -87.7270 137° Southeast 497 572 31,000  Level FlightAware
10:43PM 21.8260 -87.6490 137° Southeast 496 571 31,000 360 Level FlightAware
10:44PM 21.7680 -87.5910 137° Southeast 491 565 31,500 1,080 Climbing FlightAware
10:44PM 21.6920 -87.5160 137° Southeast 488 562 32,500 960 Climbing FlightAware
10:45PM 21.6350 -87.4600 138° Southeast 492 566 32,800 360 Climbing FlightAware
10:45PM 21.5730 -87.3980 137° Southeast 500 575 33,000 120 Climbing FlightAware
10:46PM 21.5060 -87.3320 137° Southeast 495 570 33,000  Level FlightAware
10:47PM 21.4320 -87.2590 137° Southeast 491 565 33,000  Level FlightAware
10:47PM 21.3650 -87.1930 137° Southeast 490 564 33,000  Level FlightAware
10:48PM 21.3120 -87.1410 138° Southeast 486 559 33,000  Level FlightAware
10:49PM 21.2500 -87.0800 137° Southeast 480 552 33,000  Level FlightAware
10:49PM 21.1940 -87.0240 137° Southeast 477 549 33,000  Level FlightAware
10:50PM 21.1390 -86.9710 138° Southeast 476 548 33,000  Level FlightAware
10:50PM 21.0800 -86.9130 137° Southeast 475 547 33,000  Level FlightAware
10:51PM 21.0210 -86.8550 137° Southeast 477 549 33,000  Level FlightAware
10:52PM 20.9630 -86.7990 138° Southeast 477 549 33,000  Level FlightAware
10:52PM 20.9100 -86.7470 137° Southeast 474 545 33,000  Level FlightAware
10:53PM 20.8520 -86.6900 137° Southeast 474 545 33,000  Level FlightAware
10:53PM 20.7950 -86.6350 138° Southeast 473 544 33,000  Level FlightAware
10:54PM 20.7420 -86.5840 138° Southeast 473 544 33,000  Level FlightAware
10:54PM 20.6900 -86.5340 138° Southeast 473 544 33,000  Level FlightAware
10:55PM 20.6280 -86.4730 137° Southeast 473 544 33,000  Level FlightAware
10:56PM 20.5670 -86.4150 138° Southeast 472 543 33,000  Level FlightAware
10:56PM 20.5100 -86.3590 137° Southeast 473 544 33,000  Level FlightAware
10:57PM 20.4590 -86.3090 137° Southeast 473 544 33,000  Level FlightAware
10:57PM 20.4100 -86.2610 137° Southeast 473 544 33,000  Level FlightAware
10:58PM 20.3610 -86.2120 137° Southeast 473 544 33,000  Level FlightAware
10:59PM 20.3120 -86.1630 137° Southeast 473 544 33,000  Level FlightAware
10:59PM 20.1970 -86.0590 140° Southeast 474 545 33,000  Level FlightAware
11:00PM 20.1400 -86.0050 138° Southeast 474 545 33,000  Level FlightAware
11:01PM 20.0790 -85.9460 138° Southeast 472 543 33,000  Level FlightAware
11:01PM 20.0220 -85.8920 138° Southeast 472 543 33,000  Level FlightAware
11:02PM 19.9640 -85.8370 138° Southeast 471 542 33,000  Level FlightAware
11:02PM 19.9050 -85.7810 138° Southeast 473 544 33,000  Level FlightAware
11:03PM 19.8460 -85.7260 139° Southeast 473 544 33,000  Level FlightAware
11:04PM 19.7910 -85.6740 138° Southeast 473 544 33,000  Level FlightAware
11:04PM 19.7360 -85.6220 138° Southeast 473 544 33,000  Level FlightAware
11:05PM 19.6540 -85.5440 138° Southeast 473 544 33,000  Level FlightAware
11:05PM 19.6030 -85.4970 139° Southeast 473 544 33,000  Level FlightAware
11:06PM 19.5480 -85.4440 138° Southeast 473 544 33,000  Level FlightAware
11:07PM 19.4890 -85.3900 139° Southeast 475 547 33,000  Level FlightAware
11:07PM 19.4260 -85.3310 139° Southeast 476 548 33,000  Level FlightAware
11:08PM 19.3670 -85.2760 139° Southeast 478 550 33,000  Level FlightAware
11:08PM 19.3110 -85.2230 138° Southeast 479 551 33,000  Level FlightAware
11:09PM 19.2280 -85.1450 138° Southeast 481 554 33,000  Level FlightAware
11:10PM 19.1760 -85.0950 138° Southeast 481 554 33,000  Level FlightAware
11:11PM 19.1250 -85.0470 138° Southeast 481 554 33,000  Level FlightAware
11:11PM 19.0600 -84.9850 138° Southeast 481 554 33,000  Level FlightAware
11:12PM 19.0080 -84.9360 138° Southeast 481 554 33,000  Level FlightAware
11:13PM 18.9580 -84.8880 138° Southeast 481 554 33,000  Level FlightAware
11:13PM 18.9070 -84.8400 138° Southeast 481 554 33,000  Level FlightAware
11:14PM 18.8560 -84.7910 138° Southeast 481 554 33,000  Level FlightAware
11:14PM 18.8060 -84.7430 138° Southeast 481 554 33,000  Level FlightAware
11:15PM 18.7540 -84.6940 138° Southeast 481 554 33,000  Level FlightAware
11:16PM 18.7030 -84.6460 138° Southeast 481 554 33,000  Level FlightAware
11:16PM 18.6530 -84.5980 138° Southeast 481 554 33,000  Level FlightAware
11:17PM 18.6020 -84.5500 138° Southeast 481 554 33,000  Level FlightAware
11:17PM 18.5510 -84.5010 138° Southeast 481 554 33,000  Level FlightAware
11:18PM 18.5010 -84.4530 138° Southeast 481 554 33,000  Level FlightAware
11:19PM 18.4500 -84.4050 138° Southeast 481 554 33,000  Level FlightAware
11:21PM 18.2467 -84.2424 139° Southeast  Level FlightAware Approximate
11:22PM 18.1472 -84.1512 139° Southeast  Level FlightAware Approximate
11:23PM 18.0478 -84.0601 139° Southeast  Level FlightAware Approximate
11:24PM 17.9482 -83.9691 139° Southeast  Level FlightAware Approximate
11:25PM 17.8487 -83.8782 139° Southeast  Level FlightAware Approximate
11:26PM 17.7491 -83.7874 139° Southeast  Level FlightAware Approximate
11:27PM 17.6494 -83.6967 139° Southeast  Level FlightAware Approximate
11:28PM 17.5497 -83.6061 139° Southeast  Level FlightAware Approximate
11:29PM 17.4500 -83.5157 139° Southeast  Level FlightAware Approximate
11:30PM 17.3502 -83.4253 139° Southeast  Level FlightAware Approximate
11:31PM 17.2504 -83.3350 139° Southeast  Level FlightAware Approximate
11:32PM 17.1506 -83.2448 139° Southeast  Level FlightAware Approximate
11:33PM 17.0507 -83.1547 139° Southeast  Level FlightAware Approximate
11:34PM 16.9508 -83.0647 139° Southeast  Level FlightAware Approximate
11:35PM 16.8508 -82.9748 139° Southeast  Level FlightAware Approximate
11:36PM 16.7508 -82.8850 139° Southeast  Level FlightAware Approximate
11:37PM 16.6507 -82.7952 139° Southeast  Level FlightAware Approximate
11:38PM 16.5506 -82.7056 139° Southeast  Level FlightAware Approximate
11:39PM 16.4505 -82.6161 139° Southeast  Level FlightAware Approximate
11:40PM 16.3504 -82.5267 139° Southeast  Level FlightAware Approximate
11:41PM 16.2502 -82.4373 139° Southeast  Level FlightAware Approximate
11:42PM 16.1499 -82.3481 139° Southeast  Level FlightAware Approximate
11:43PM 16.0497 -82.2589 139° Southeast  Level FlightAware Approximate
11:44PM 15.9493 -82.1698 140° Southeast  Level FlightAware Approximate
11:45PM 15.8490 -82.0809 140° Southeast  Level FlightAware Approximate
11:46PM 15.7485 -81.9920 140° Southeast  Level FlightAware Approximate
11:47PM 15.6481 -81.9033 140° Southeast  Level FlightAware Approximate
11:48PM 15.5476 -81.8146 140° Southeast  Level FlightAware Approximate
11:49PM 15.4471 -81.7260 140° Southeast  Level FlightAware Approximate
11:50PM 15.3465 -81.6375 140° Southeast  Level FlightAware Approximate
11:51PM 15.2459 -81.5490 140° Southeast  Level FlightAware Approximate
11:52PM 15.1453 -81.4607 140° Southeast  Level FlightAware Approximate
11:53PM 15.0446 -81.3724 140° Southeast  Level FlightAware Approximate
11:54PM 14.9439 -81.2839 140° Southeast  Level FlightAware Approximate
11:55PM 14.8433 -81.1953 140° Southeast  Level FlightAware Approximate
11:56PM 14.7427 -81.1068 140° Southeast  Level FlightAware Approximate
11:57PM 14.6420 -81.0183 140° Southeast  Level FlightAware Approximate
11:58PM 14.5413 -80.9300 140° Southeast  Level FlightAware Approximate
11:59PM 14.4405 -80.8417 140° Southeast  Level FlightAware Approximate
12:00AM 14.3397 -80.7535 140° Southeast  Level FlightAware Approximate
12:01AM 14.2382 -80.6663 140° Southeast  Level FlightAware Approximate
12:02AM 14.1365 -80.5793 140° Southeast  Level FlightAware Approximate
12:03AM 14.0347 -80.4924 140° Southeast  Level FlightAware Approximate
12:04AM 13.9329 -80.4057 140° Southeast  Level FlightAware Approximate
12:05AM 13.8311 -80.3190 140° Southeast  Level FlightAware Approximate
12:06AM 13.7293 -80.2322 140° Southeast  Level FlightAware Approximate
12:07AM 13.6280 -80.1449 140° Southeast  Level FlightAware Approximate
12:08AM 13.5267 -80.0577 140° Southeast  Level FlightAware Approximate
12:09AM 13.4253 -79.9706 140° Southeast  Level FlightAware Approximate
12:10AM 13.3238 -79.8836 140° Southeast  Level FlightAware Approximate
12:11AM 13.2224 -79.7966 140° Southeast  Level FlightAware Approximate
12:12AM 13.1209 -79.7097 140° Southeast  Level FlightAware Approximate
12:13AM 13.0194 -79.6229 140° Southeast  Level FlightAware Approximate
12:14AM 12.9179 -79.5362 140° Southeast  Level FlightAware Approximate
12:15AM 12.8163 -79.4495 140° Southeast  Level FlightAware Approximate
12:16AM 12.7147 -79.3629 140° Southeast  Level FlightAware Approximate
12:17AM 12.6131 -79.2764 140° Southeast  Level FlightAware Approximate
12:18AM 12.5115 -79.1899 140° Southeast  Level FlightAware Approximate
12:19AM 12.4098 -79.1035 140° Southeast  Level FlightAware Approximate
12:20AM 12.3081 -79.0171 140° Southeast  Level FlightAware Approximate
12:21AM 12.2064 -78.9309 140° Southeast  Level FlightAware Approximate
12:22AM 12.1046 -78.8447 140° Southeast  Level FlightAware Approximate
12:23AM 12.0028 -78.7585 140° Southeast  Level FlightAware Approximate
12:24AM 11.9010 -78.6725 140° Southeast  Level FlightAware Approximate
12:25AM 11.7992 -78.5864 140° Southeast  Level FlightAware Approximate
12:26AM 11.6973 -78.5005 140° Southeast  Level FlightAware Approximate
12:27AM 11.5955 -78.4146 140° Southeast  Level FlightAware Approximate
12:28AM 11.4936 -78.3288 140° Southeast  Level FlightAware Approximate
12:29AM 11.3916 -78.2431 140° Southeast  Level FlightAware Approximate
12:30AM 11.2896 -78.1574 141° Southeast  Level FlightAware Approximate
12:31AM 11.1875 -78.0716 141° Southeast  Level FlightAware Approximate
12:32AM 11.0853 -77.9859 141° Southeast  Level FlightAware Approximate
12:32AM 10.6530 -77.1310 141° Southeast 505 581 33,000  Level FlightAware
12:33AM 10.9831 -77.9002 141° Southeast  Level FlightAware Approximate
12:33AM 10.5990 -77.0800 137° Southeast 505 581 33,000  Level FlightAware
12:33AM 10.5460 -77.0300 137° Southeast 505 581 33,000  Level FlightAware
12:34AM 10.4760 -76.9670 138° Southeast 720 829 33,000  Level FlightAware
12:35AM 10.3850 -76.8820 137° Southeast 502 578 33,000  Level FlightAware
12:35AM 10.3160 -76.8180 138° Southeast 502 578 33,000  Level FlightAware
12:36AM 10.2670 -76.7730 138° Southeast 502 578 33,000  Level FlightAware
12:36AM 10.2000 -76.7100 137° Southeast 502 578 33,000  Level FlightAware
12:37AM 10.1290 -76.6440 138° Southeast 502 578 33,000  Level FlightAware
12:38AM 10.0520 -76.5720 137° Southeast 503 579 33,000  Level FlightAware
12:39AM 9.9670 -76.4940 138° Southeast 504 580 33,000  Level FlightAware
12:40AM 9.8820 -76.4150 138° Southeast 503 579 33,000  Level FlightAware
12:40AM 9.8300 -76.3660 137° Southeast 503 579 33,000  Level FlightAware
12:41AM 9.7480 -76.2920 138° Southeast 501 577 33,000  Level FlightAware
12:41AM 9.6870 -76.2350 137° Southeast 500 575 33,000  Level FlightAware
12:42AM 9.6190 -76.1730 138° Southeast 500 575 33,000  Level FlightAware
12:43AM 9.5600 -76.1180 137° Southeast 500 575 33,000  Level FlightAware
12:43AM 9.5000 -76.0630 138° Southeast 500 575 33,000  Level FlightAware
12:44AM 9.4400 -76.0080 138° Southeast 500 575 33,000  Level FlightAware
12:44AM 9.3800 -75.9530 138° Southeast 500 575 33,000  Level FlightAware
12:45AM 9.3190 -75.8970 138° Southeast 498 573 33,000  Level FlightAware
12:45AM 9.2620 -75.8430 137° Southeast 498 573 33,000  Level FlightAware
12:46AM 9.2010 -75.7880 138° Southeast 498 573 33,000  Level FlightAware
12:47AM 9.1430 -75.7350 138° Southeast 498 573 33,000  Level FlightAware
12:47AM 9.0690 -75.6670 138° Southeast 498 573 33,000  Level FlightAware
12:48AM 8.9940 -75.5970 137° Southeast 496 571 33,000  Level FlightAware
12:49AM 8.9160 -75.5180 135° Southeast 493 567 33,000  Level FlightAware
12:49AM 8.8900 -75.4790 124° Southeast 492 566 33,000  Level FlightAware
12:50AM 8.8510 -75.4200 124° Southeast 492 566 33,000  Level FlightAware
12:50AM 8.7960 -75.3380 124° Southeast 492 566 33,000  Level FlightAware
12:51AM 8.7510 -75.2710 124° Southeast 492 566 33,000  Level FlightAware
12:52AM 8.7060 -75.2040 124° Southeast 491 565 33,000  Level FlightAware
12:52AM 8.6540 -75.1260 124° Southeast 491 565 33,000  Level FlightAware
12:53AM 8.6170 -75.0690 123° Southeast 492 566 33,000  Level FlightAware
12:53AM 8.5770 -75.0090 124° Southeast 492 566 33,000  Level FlightAware
12:54AM 8.5300 -74.9380 124° Southeast 491 565 33,000  Level FlightAware
12:55AM 8.4890 -74.8760 124° Southeast 494 568 33,000  Level FlightAware
12:55AM 8.4440 -74.8080 124° Southeast 495 570 33,000  Level FlightAware
12:56AM 8.3970 -74.7360 123° Southeast 497 572 33,000  Level FlightAware
12:56AM 8.3510 -74.6650 123° Southeast 496 571 33,000  Level FlightAware
12:57AM 8.2960 -74.5800 123° Southeast 497 572 33,000  Level FlightAware
12:58AM 8.2490 -74.5100 124° Southeast 497 572 33,000  Level FlightAware
12:58AM 8.2010 -74.4340 123° Southeast 496 571 33,000  Level FlightAware
12:59AM 8.1470 -74.3490 123° Southeast 495 570 33,000  Level FlightAware
01:00AM 8.1080 -74.2870 122° Southeast 493 567 33,000  Level FlightAware
01:00AM 8.0650 -74.2190 123° Southeast 492 566 33,000  Level FlightAware
01:01AM 8.0170 -74.1420 122° Southeast 492 566 33,000  Level FlightAware
01:01AM 7.9740 -74.0730 122° Southeast 493 567 33,000  Level FlightAware
01:02AM 7.9320 -74.0060 122° Southeast 493 567 33,000  Level FlightAware
01:02AM 7.8960 -73.9480 122° Southeast 494 568 33,000  Level FlightAware
01:03AM 7.8530 -73.8800 123° Southeast 497 572 33,000  Level FlightAware
01:04AM 7.8080 -73.8090 123° Southeast 498 573 33,000  Level FlightAware
01:04AM 7.7670 -73.7430 122° Southeast 499 574 33,000  Level FlightAware
01:05AM 7.7280 -73.6790 122° Southeast 499 574 33,000  Level FlightAware
01:05AM 7.6800 -73.6040 123° Southeast 500 575 33,000  Level FlightAware
01:06AM 7.6360 -73.5330 122° Southeast 501 577 33,000  Level FlightAware
01:07AM 7.5990 -73.4720 121° Southeast 501 577 33,000  Level FlightAware
01:07AM 7.5610 -73.4110 122° Southeast 501 577 33,000  Level FlightAware
01:08AM 7.5230 -73.3510 123° Southeast 501 577 33,000  Level FlightAware
01:08AM 7.4860 -73.2900 121° Southeast 501 577 33,000  Level FlightAware
01:09AM 7.4480 -73.2290 122° Southeast 501 577 33,000  Level FlightAware
01:10AM 7.4110 -73.1690 122° Southeast 501 577 33,000  Level FlightAware
01:10AM 7.3730 -73.1080 122° Southeast 501 577 33,000  Level FlightAware
01:11AM 7.1390 -73.1380 187° South 504 580 33,000  Level FlightAware
01:11AM 7.0770 -73.0940 145° Southeast 504 580 33,000  Level FlightAware
01:12AM 7.0190 -73.0530 145° Southeast 504 580 33,000  Level FlightAware
01:12AM 6.9610 -73.0120 145° Southeast 504 580 33,000  Level FlightAware
01:13AM 6.9020 -72.9710 145° Southeast 504 580 33,000  Level FlightAware
01:14AM 6.8440 -72.9290 144° Southeast 504 580 33,000  Level FlightAware
01:14AM 6.7850 -72.8880 145° Southeast 504 580 33,000  Level FlightAware
01:15AM 6.7270 -72.8470 145° Southeast 504 580 33,000  Level FlightAware
01:15AM 6.6680 -72.8060 145° Southeast 504 580 33,000  Level FlightAware
01:16AM 6.6100 -72.7650 145° Southeast 504 580 33,000  Level FlightAware
01:17AM 6.5500 -72.7220 145° Southeast 504 580 33,000  Level FlightAware
01:17AM 6.4910 -72.6810 145° Southeast 504 580 33,000  Level FlightAware
01:18AM 6.4330 -72.6400 145° Southeast 504 580 33,000  Level FlightAware
01:18AM 6.3740 -72.5990 145° Southeast 504 580 33,000  Level FlightAware
01:19AM 6.3160 -72.5580 145° Southeast 504 580 33,000  Level FlightAware
01:20AM 6.2580 -72.5160 144° Southeast 504 580 33,000  Level FlightAware
01:20AM 6.1970 -72.4740 146° Southeast 504 580 33,000  Level FlightAware
01:23AM 5.9632 -72.2788 140° Southeast  Level Estimated
01:24AM 5.8615 -72.1940 140° Southeast  Level Estimated
01:25AM 5.7599 -72.1092 140° Southeast  Level Estimated
01:26AM 5.6582 -72.0244 140° Southeast  Level Estimated
01:27AM 5.5564 -71.9397 140° Southeast  Level Estimated
01:28AM 5.4547 -71.8550 140° Southeast  Level Estimated
01:29AM 5.3530 -71.7703 140° Southeast  Level Estimated
01:30AM 5.2512 -71.6857 140° Southeast  Level Estimated
01:31AM 5.1495 -71.6011 140° Southeast  Level Estimated
01:32AM 5.0477 -71.5165 140° Southeast  Level Estimated
01:33AM 4.9459 -71.4319 140° Southeast  Level Estimated
01:34AM 4.8441 -71.3474 140° Southeast  Level Estimated
01:35AM 4.7423 -71.2629 140° Southeast  Level Estimated
01:36AM 4.6405 -71.1784 140° Southeast  Level Estimated
01:37AM 4.5387 -71.0939 140° Southeast  Level Estimated
01:38AM 4.4369 -71.0095 140° Southeast  Level Estimated
01:39AM 4.3350 -70.9251 140° Southeast  Level Estimated
01:40AM 4.2332 -70.8407 140° Southeast  Level Estimated
01:41AM 4.1313 -70.7563 140° Southeast  Level Estimated
01:42AM 4.0295 -70.6720 140° Southeast  Level Estimated
01:43AM 3.9276 -70.5876 140° Southeast  Level Estimated
01:44AM 3.8257 -70.5033 140° Southeast  Level Estimated
01:45AM 3.7238 -70.4190 140° Southeast  Level Estimated
01:46AM 3.6219 -70.3347 140° Southeast  Level Estimated
01:47AM 3.5200 -70.2505 140° Southeast  Level Estimated
01:48AM 3.4181 -70.1663 140° Southeast  Level Estimated
01:49AM 3.3162 -70.0821 140° Southeast  Level Estimated
01:50AM 3.2142 -69.9979 140° Southeast  Level Estimated
01:51AM 3.1123 -69.9137 140° Southeast  Level Estimated
01:52AM 3.0103 -69.8295 140° Southeast  Level Estimated
01:53AM 2.9084 -69.7454 141° Southeast  Level Estimated
01:54AM 2.8064 -69.6613 141° Southeast  Level Estimated
01:55AM 2.7045 -69.5771 141° Southeast  Level Estimated
01:56AM 2.6025 -69.4930 141° Southeast  Level Estimated
01:57AM 2.5005 -69.4090 141° Southeast  Level Estimated
01:58AM 2.3986 -69.3249 141° Southeast  Level Estimated
01:59AM 2.2966 -69.2408 141° Southeast  Level Estimated
02:00AM 2.1946 -69.1568 141° Southeast  Level Estimated
02:01AM 2.0926 -69.0727 141° Southeast  Level Estimated
02:02AM 1.9906 -68.9887 141° Southeast  Level Estimated
02:03AM 1.8886 -68.9047 141° Southeast  Level Estimated
02:04AM 1.7866 -68.8207 141° Southeast  Level Estimated
02:05AM 1.6846 -68.7367 141° Southeast  Level Estimated
02:06AM 1.5826 -68.6527 141° Southeast  Level Estimated
02:07AM 1.4806 -68.5687 141° Southeast  Level Estimated
02:08AM 1.3785 -68.4847 141° Southeast  Level Estimated
02:09AM 1.2765 -68.4008 141° Southeast  Level Estimated
02:10AM 1.1745 -68.3168 141° Southeast  Level Estimated
02:11AM 1.0725 -68.2329 141° Southeast  Level Estimated
02:12AM 0.9704 -68.1489 141° Southeast  Level Estimated
02:13AM 0.8684 -68.0650 141° Southeast  Level Estimated
02:14AM 0.7663 -67.9810 141° Southeast  Level Estimated
02:15AM 0.6643 -67.8971 141° Southeast  Level Estimated
02:16AM 0.5623 -67.8132 141° Southeast  Level Estimated
02:17AM 0.4602 -67.7292 141° Southeast  Level Estimated
02:18AM 0.3582 -67.6453 141° Southeast  Level Estimated
02:19AM 0.2562 -67.5614 141° Southeast  Level Estimated
02:20AM 0.1541 -67.4775 141° Southeast  Level Estimated
02:21AM 0.0521 -67.3936 141° Southeast  Level Estimated
02:22AM -0.0500 -67.3096 141° Southeast  Level Estimated
02:23AM -0.1520 -67.2257 141° Southeast  Level Estimated
02:24AM -0.2540 -67.1418 141° Southeast  Level Estimated
02:25AM -0.3561 -67.0579 141° Southeast  Level Estimated
02:26AM -0.4581 -66.9740 141° Southeast  Level Estimated
02:27AM -0.5602 -66.8900 141° Southeast  Level Estimated
02:28AM -0.6622 -66.8061 141° Southeast  Level Estimated
02:29AM -0.7642 -66.7222 141° Southeast  Level Estimated
02:30AM -0.8663 -66.6382 141° Southeast  Level Estimated
02:31AM -0.9683 -66.5543 141° Southeast  Level Estimated
02:32AM -1.0704 -66.4703 141° Southeast  Level Estimated
02:33AM -1.1724 -66.3864 141° Southeast  Level Estimated
02:34AM -1.2744 -66.3024 141° Southeast  Level Estimated
02:35AM -1.3764 -66.2185 141° Southeast  Level Estimated
02:36AM -1.4784 -66.1345 141° Southeast  Level Estimated
02:37AM -1.5805 -66.0505 141° Southeast  Level Estimated
02:38AM -1.6825 -65.9665 141° Southeast  Level Estimated
02:39AM -1.7845 -65.8825 141° Southeast  Level Estimated
02:40AM -1.8865 -65.7985 141° Southeast  Level Estimated
02:41AM -1.9885 -65.7145 141° Southeast  Level Estimated
02:42AM -2.0905 -65.6305 141° Southeast  Level Estimated
02:43AM -2.1925 -65.5464 141° Southeast  Level Estimated
02:44AM -2.2945 -65.4624 141° Southeast  Level Estimated
02:45AM -2.3965 -65.3783 141° Southeast  Level Estimated
02:46AM -2.4984 -65.2942 141° Southeast  Level Estimated
02:47AM -2.6004 -65.2102 141° Southeast  Level Estimated
02:48AM -2.7024 -65.1261 141° Southeast  Level Estimated
02:49AM -2.8043 -65.0419 141° Southeast  Level Estimated
02:50AM -2.9063 -64.9578 141° Southeast  Level Estimated
02:51AM -3.0082 -64.8737 141° Southeast  Level Estimated
02:52AM -3.1102 -64.7895 141° Southeast  Level Estimated
02:53AM -3.2121 -64.7053 140° Southeast  Level Estimated
02:54AM -3.3141 -64.6211 140° Southeast  Level Estimated
02:55AM -3.4160 -64.5369 140° Southeast  Level Estimated
02:56AM -3.5179 -64.4527 140° Southeast  Level Estimated
02:57AM -3.6198 -64.3684 140° Southeast  Level Estimated
02:58AM -3.7217 -64.2842 140° Southeast  Level Estimated
02:59AM -3.8236 -64.1999 140° Southeast  Level Estimated
03:00AM -3.9255 -64.1156 140° Southeast  Level Estimated
03:01AM -4.0274 -64.0313 140° Southeast  Level Estimated
03:02AM -4.1292 -63.9469 140° Southeast  Level Estimated
03:03AM -4.2311 -63.8625 140° Southeast  Level Estimated
03:04AM -4.3329 -63.7781 140° Southeast  Level Estimated
03:05AM -4.4348 -63.6937 140° Southeast  Level Estimated
03:06AM -4.5366 -63.6093 140° Southeast  Level Estimated
03:07AM -4.6384 -63.5248 140° Southeast  Level Estimated
03:08AM -4.7402 -63.4404 140° Southeast  Level Estimated
03:09AM -4.8420 -63.3559 140° Southeast  Level Estimated
03:10AM -4.9438 -63.2713 140° Southeast  Level Estimated
03:11AM -5.0456 -63.1867 140° Southeast  Level Estimated
03:12AM -5.1474 -63.1022 140° Southeast  Level Estimated
03:13AM -5.2491 -63.0176 140° Southeast  Level Estimated
03:14AM -5.3509 -62.9329 140° Southeast  Level Estimated
03:15AM -5.4526 -62.8482 140° Southeast  Level Estimated
03:16AM -5.5543 -62.7635 140° Southeast  Level Estimated
03:17AM -5.6561 -62.6788 140° Southeast  Level Estimated
03:18AM -5.7578 -62.5941 140° Southeast  Level Estimated
03:19AM -5.8594 -62.5093 140° Southeast  Level Estimated
03:20AM -5.9611 -62.4244 140° Southeast  Level Estimated
03:21AM -6.0628 -62.3396 140° Southeast  Level Estimated
03:22AM -6.1644 -62.2547 140° Southeast  Level Estimated
03:23AM -6.2660 -62.1698 140° Southeast  Level Estimated
03:24AM -6.3677 -62.0848 140° Southeast  Level Estimated
03:25AM -6.4693 -61.9999 140° Southeast  Level Estimated
03:26AM -6.5709 -61.9148 140° Southeast  Level Estimated
03:27AM -6.6725 -61.8298 140° Southeast  Level Estimated
03:28AM -6.7740 -61.7447 140° Southeast  Level Estimated
03:29AM -6.8756 -61.6596 140° Southeast  Level Estimated
03:30AM -6.9771 -61.5744 140° Southeast  Level Estimated
03:31AM -7.0786 -61.4892 140° Southeast  Level Estimated
03:32AM -7.1801 -61.4040 140° Southeast  Level Estimated
03:33AM -7.2816 -61.3187 140° Southeast  Level Estimated
03:34AM -7.3831 -61.2334 140° Southeast  Level Estimated
03:35AM -7.4845 -61.1481 140° Southeast  Level Estimated
03:36AM -7.5860 -61.0627 140° Southeast  Level Estimated
03:37AM -7.6874 -60.9772 140° Southeast  Level Estimated
03:38AM -7.7888 -60.8918 140° Southeast  Level Estimated
03:39AM -7.8902 -60.8063 140° Southeast  Level Estimated
03:40AM -7.9915 -60.7207 140° Southeast  Level Estimated
03:41AM -8.0929 -60.6351 140° Southeast  Level Estimated
03:42AM -8.1942 -60.5495 140° Southeast  Level Estimated
03:43AM -8.2955 -60.4638 140° Southeast  Level Estimated
03:44AM -8.3968 -60.3781 140° Southeast  Level Estimated
03:45AM -8.4981 -60.2923 140° Southeast  Level Estimated
03:46AM -8.5994 -60.2065 140° Southeast  Level Estimated
03:47AM -8.7006 -60.1206 140° Southeast  Level Estimated
03:48AM -8.8018 -60.0347 140° Southeast  Level Estimated
03:49AM -8.9030 -59.9487 140° Southeast  Level Estimated
03:50AM -9.0042 -59.8627 140° Southeast  Level Estimated
03:51AM -9.1054 -59.7767 140° Southeast  Level Estimated
03:52AM -9.2065 -59.6906 140° Southeast  Level Estimated
03:53AM -9.3076 -59.6044 140° Southeast  Level Estimated
03:54AM -9.4087 -59.5182 140° Southeast  Level Estimated
03:55AM -9.5098 -59.4320 140° Southeast  Level Estimated
03:56AM -9.6109 -59.3457 140° Southeast  Level Estimated
03:57AM -9.7119 -59.2593 140° Southeast  Level Estimated
03:58AM -9.8129 -59.1729 140° Southeast  Level Estimated
03:59AM -9.9139 -59.0865 140° Southeast  Level Estimated
04:00AM -10.0149 -59.0000 140° Southeast  Level Estimated
04:01AM -10.1159 -58.9134 140° Southeast  Level Estimated
04:02AM -10.2168 -58.8268 140° Southeast  Level Estimated
04:03AM -10.3177 -58.7401 140° Southeast  Level Estimated
04:04AM -10.4186 -58.6534 140° Southeast  Level Estimated
04:05AM -10.5194 -58.5666 140° Southeast  Level Estimated
04:06AM -10.6202 -58.4798 140° Southeast  Level Estimated
04:07AM -10.7211 -58.3929 140° Southeast  Level Estimated
04:08AM -10.8218 -58.3059 140° Southeast  Level Estimated
04:09AM -10.9226 -58.2189 140° Southeast  Level Estimated
04:10AM -11.0233 -58.1318 140° Southeast  Level Estimated
04:11AM -11.1241 -58.0447 140° Southeast  Level Estimated
04:12AM -11.2247 -57.9575 140° Southeast  Level Estimated
04:13AM -11.3254 -57.8702 140° Southeast  Level Estimated
04:14AM -11.4261 -57.7829 140° Southeast  Level Estimated
04:15AM -11.5267 -57.6955 140° Southeast  Level Estimated
04:16AM -11.6272 -57.6081 140° Southeast  Level Estimated
04:17AM -11.7278 -57.5206 140° Southeast  Level Estimated
04:18AM -11.8283 -57.4330 140° Southeast  Level Estimated
04:19AM -11.9288 -57.3454 140° Southeast  Level Estimated
04:20AM -12.0293 -57.2577 140° Southeast  Level Estimated
04:21AM -12.1298 -57.1699 139° Southeast  Level Estimated
04:22AM -12.2302 -57.0821 139° Southeast  Level Estimated
04:23AM -12.3306 -56.9942 139° Southeast  Level Estimated
04:24AM -12.4309 -56.9062 139° Southeast  Level Estimated
04:25AM -12.5313 -56.8182 139° Southeast  Level Estimated
04:26AM -12.6316 -56.7301 139° Southeast  Level Estimated
04:27AM -12.7319 -56.6419 139° Southeast  Level Estimated
04:28AM -12.8321 -56.5537 139° Southeast  Level Estimated
04:29AM -12.9323 -56.4654 139° Southeast  Level Estimated
04:30AM -13.0325 -56.3770 139° Southeast  Level Estimated
04:31AM -13.1327 -56.2886 139° Southeast  Level Estimated
04:32AM -13.2328 -56.2000 139° Southeast  Level Estimated
04:33AM -13.3329 -56.1114 139° Southeast  Level Estimated
04:34AM -13.4330 -56.0228 139° Southeast  Level Estimated
04:35AM -13.5330 -55.9340 139° Southeast  Level Estimated
04:36AM -13.6330 -55.8452 139° Southeast  Level Estimated
04:37AM -13.7330 -55.7563 139° Southeast  Level Estimated
04:38AM -13.8330 -55.6674 139° Southeast  Level Estimated
04:39AM -13.9329 -55.5783 139° Southeast  Level Estimated
04:40AM -14.0328 -55.4892 139° Southeast  Level Estimated
04:41AM -14.1329 -55.3997 139° Southeast  Level Estimated
04:42AM -14.2331 -55.3101 139° Southeast  Level Estimated
04:43AM -14.3333 -55.2204 139° Southeast  Level Estimated
04:44AM -14.4334 -55.1306 139° Southeast  Level Estimated
04:45AM -14.5334 -55.0408 139° Southeast  Level Estimated
04:46AM -14.6335 -54.9509 139° Southeast  Level Estimated
04:47AM -14.7335 -54.8609 139° Southeast  Level Estimated
04:48AM -14.8334 -54.7708 139° Southeast  Level Estimated
04:49AM -14.9334 -54.6806 139° Southeast  Level Estimated
04:50AM -15.0332 -54.5904 139° Southeast  Level Estimated
04:51AM -15.1331 -54.5000 139° Southeast  Level Estimated
04:52AM -15.2329 -54.4096 139° Southeast  Level Estimated
04:53AM -15.3327 -54.3191 139° Southeast  Level Estimated
04:54AM -15.4325 -54.2285 139° Southeast  Level Estimated
04:55AM -15.5322 -54.1378 139° Southeast  Level Estimated
04:56AM -15.6319 -54.0471 139° Southeast  Level Estimated
04:57AM -15.7315 -53.9562 139° Southeast  Level Estimated
04:58AM -15.8311 -53.8652 139° Southeast  Level Estimated
04:59AM -15.9307 -53.7742 139° Southeast  Level Estimated
05:00AM -16.0302 -53.6831 139° Southeast  Level Estimated
05:01AM -16.1297 -53.5919 139° Southeast  Level Estimated
05:02AM -16.2291 -53.5005 139° Southeast  Level Estimated
05:03AM -16.3285 -53.4091 139° Southeast  Level Estimated
05:04AM -16.4279 -53.3176 139° Southeast  Level Estimated
05:05AM -16.5272 -53.2261 139° Southeast  Level Estimated
05:06AM -16.6265 -53.1344 139° Southeast  Level Estimated
05:07AM -16.7258 -53.0426 138° Southeast  Level Estimated
05:08AM -16.8250 -52.9507 138° Southeast  Level Estimated
05:09AM -16.9242 -52.8588 138° Southeast  Level Estimated
05:10AM -17.0233 -52.7667 138° Southeast  Level Estimated
05:11AM -17.1224 -52.6745 138° Southeast  Level Estimated
05:12AM -17.2214 -52.5823 138° Southeast  Level Estimated
05:13AM -17.3204 -52.4899 138° Southeast  Level Estimated
05:14AM -17.4194 -52.3975 138° Southeast  Level Estimated
05:15AM -17.5183 -52.3049 138° Southeast  Level Estimated
05:16AM -17.6172 -52.2122 138° Southeast  Level Estimated
05:17AM -17.7160 -52.1195 138° Southeast  Level Estimated
05:18AM -17.8148 -52.0266 138° Southeast  Level Estimated
05:19AM -17.9135 -51.9337 138° Southeast  Level Estimated
05:20AM -18.0122 -51.8406 138° Southeast  Level Estimated
05:21AM -18.1109 -51.7474 138° Southeast  Level Estimated
05:22AM -18.2095 -51.6541 138° Southeast  Level Estimated
05:23AM -18.3081 -51.5607 138° Southeast  Level Estimated
05:24AM -18.4066 -51.4673 138° Southeast  Level Estimated
05:24AM -19.0300 -50.6380 138° Southeast 512 589 35,000  Level FlightAware
05:25AM -18.5050 -51.3736 138° Southeast  Level Estimated
05:25AM -19.0910 -50.5720 134° Southeast 514 592 35,000  Level FlightAware
05:26AM -19.1490 -50.5080 134° Southeast 515 593 35,000  Level FlightAware
05:26AM -19.2020 -50.4500 134° Southeast 514 592 35,000  Level FlightAware
05:27AM -19.2640 -50.3820 134° Southeast 514 592 35,000  Level FlightAware
05:27AM -19.3240 -50.3160 134° Southeast 514 592 35,000  Level FlightAware
05:28AM -19.3760 -50.2590 134° Southeast 513 590 35,000  Level FlightAware
05:28AM -19.4330 -50.1970 134° Southeast 513 590 35,000  Level FlightAware
05:29AM -19.4930 -50.1300 134° Southeast 514 592 35,000  Level FlightAware
05:30AM -19.5530 -50.0640 134° Southeast 514 592 35,000  Level FlightAware
05:30AM -19.6100 -50.0010 134° Southeast 514 592 35,000  Level FlightAware
05:31AM -19.6650 -49.9410 134° Southeast 514 592 35,000  Level FlightAware
05:31AM -19.7240 -49.8770 134° Southeast 514 592 35,000  Level FlightAware
05:32AM -19.7850 -49.8100 134° Southeast 514 592 35,000  Level FlightAware
05:33AM -19.8440 -49.7460 134° Southeast 515 593 35,000  Level FlightAware
05:33AM -19.9010 -49.6830 134° Southeast 516 594 35,000 -540 Level FlightAware
05:34AM -19.9590 -49.6200 134° Southeast 516 594 34,400 -1,140 Descending FlightAware
05:34AM -20.0210 -49.5510 134° Southeast 516 594 33,700 -1,140 Descending FlightAware
05:35AM -20.0730 -49.4940 134° Southeast 513 590 33,100 -1,020 Descending FlightAware
05:35AM -20.1310 -49.4310 134° Southeast 509 586 32,600 -1,020 Descending FlightAware
05:36AM -20.1910 -49.3640 134° Southeast 506 582 31,900 -1,080 Descending FlightAware
05:37AM -20.2440 -49.3070 135° Southeast 503 579 31,400 -840 Descending FlightAware
05:37AM -20.3020 -49.2430 134° Southeast 502 578 31,000 -360 Descending FlightAware
05:38AM -20.3600 -49.1790 134° Southeast 502 578 31,000  Level FlightAware
05:38AM -20.4190 -49.1130 134° Southeast 503 579 31,000  Level FlightAware
05:39AM -20.4690 -49.0570 134° Southeast 502 578 31,000  Level FlightAware
05:40AM -20.5280 -48.9920 134° Southeast 503 579 31,000  Level FlightAware
05:40AM -20.5830 -48.9310 134° Southeast 503 579 31,000  Level FlightAware
05:41AM -20.6450 -48.8630 134° Southeast 505 581 31,000  Level FlightAware
05:41AM -20.6990 -48.8020 133° Southeast 507 583 31,000  Level FlightAware
05:42AM -20.7550 -48.7400 134° Southeast 507 583 31,000  Level FlightAware
05:42AM -20.8090 -48.6790 133° Southeast 507 583 31,000  Level FlightAware
05:43AM -20.8660 -48.6150 134° Southeast 508 585 31,000  Level FlightAware
05:44AM -20.9260 -48.5470 133° Southeast 510 587 31,000  Level FlightAware
05:44AM -20.9840 -48.4820 134° Southeast 509 586 31,000  Level FlightAware
05:45AM -21.0370 -48.4230 134° Southeast 508 585 31,000  Level FlightAware
05:45AM -21.0940 -48.3580 133° Southeast 507 583 31,000  Level FlightAware
05:46AM -21.1540 -48.2910 134° Southeast 507 583 31,000  Level FlightAware
05:47AM -21.2080 -48.2290 133° Southeast 508 585 31,000  Level FlightAware
05:47AM -21.2670 -48.1630 134° Southeast 509 586 31,000  Level FlightAware
05:48AM -21.3260 -48.0960 133° Southeast 507 583 31,000  Level FlightAware
05:48AM -21.3820 -48.0320 133° Southeast 509 586 31,000  Level FlightAware
05:49AM -21.4360 -47.9710 134° Southeast 509 586 31,000  Level FlightAware
05:49AM -21.4910 -47.9090 134° Southeast 510 587 31,000  Level FlightAware
05:50AM -21.5520 -47.8400 134° Southeast 510 587 31,000  Level FlightAware
05:51AM -21.6100 -47.7740 133° Southeast 510 587 31,000  Level FlightAware
05:51AM -21.6620 -47.7140 133° Southeast 511 588 31,000  Level FlightAware
05:52AM -21.7180 -47.6510 134° Southeast 510 587 31,000  Level FlightAware
05:52AM -21.7770 -47.5830 133° Southeast 510 587 31,000  Level FlightAware
05:53AM -21.8280 -47.5240 133° Southeast 511 588 31,000  Level FlightAware
05:54AM -21.8880 -47.4560 134° Southeast 512 589 31,000  Level FlightAware
05:54AM -21.9460 -47.3890 133° Southeast 508 585 31,000  Level FlightAware
05:55AM -21.9950 -47.3460 141° Southeast 490 564 31,000 -480 Level FlightAware
05:55AM -22.0520 -47.3160 154° Southeast 474 545 30,600 -1,740 Descending FlightAware
05:56AM -22.1240 -47.2860 159° South 466 536 29,200 -2,640 Descending FlightAware
05:56AM -22.1930 -47.2590 160° South 458 527 27,600 -3,000 Descending FlightAware
05:57AM -22.2650 -47.2290 159° South 460 529 25,700 -2,700 Descending FlightAware
05:57AM -22.3360 -47.1990 159° South 456 525 24,400 -2,040 Descending FlightAware
05:58AM -22.3990 -47.1730 159° South 452 520 23,400 -1,920 Descending FlightAware
05:59AM -22.4720 -47.1420 159° South 441 507 22,200 -2,160 Descending FlightAware
05:59AM -22.5340 -47.1160 159° South 432 497 20,900 -2,340 Descending FlightAware
06:00AM -22.5980 -47.0880 158° South 432 497 19,600 -2,040 Descending FlightAware
06:00AM -22.6650 -47.0600 159° South 426 490 18,500 -1,860 Descending FlightAware
06:01AM -22.7270 -47.0350 160° South 420 483 17,500 -1,860 Descending FlightAware
06:01AM -22.7920 -47.0080 159° South 414 476 16,400 -1,860 Descending FlightAware
06:02AM -22.8550 -46.9810 158° South 409 471 15,300 -1,980 Descending FlightAware
06:03AM -22.9170 -46.9550 159° South 410 472 14,100 -2,160 Descending FlightAware
06:03AM -22.9760 -46.9300 159° South 384 442 12,900 -2,040 Descending FlightAware
06:04AM -23.0340 -46.9060 159° South 351 404 11,700 -1,920 Descending FlightAware
06:04AM -23.0820 -46.8850 158° South 326 375 10,700 -1,500 Descending FlightAware
06:05AM -23.1290 -46.8660 160° South 289 333 10,000 -1,200 Descending FlightAware
06:05AM -23.1550 -46.8550 159° South 283 326 9,600 -1,260 Descending FlightAware
06:06AM -23.1840 -46.8430 159° South 281 323 9,100 -1,380 Descending FlightAware
06:06AM -23.2080 -46.8320 157° South 279 321 8,600 -1,500 Descending FlightAware
06:06AM -23.2220 -46.8260 159° South 271 312 8,300 -1,200 Descending FlightAware
06:07AM -23.2490 -46.8150 159° South 258 297 7,900 -840 Descending FlightAware
06:07AM -23.2710 -46.8050 157° South 249 287 7,700 -780 Descending FlightAware
06:07AM -23.2920 -46.7940 154° Southeast 251 289 7,400 -1,080 Descending FlightAware
06:08AM -23.3110 -46.7800 146° Southeast 250 288 7,000 -960 Descending FlightAware
06:08AM -23.3330 -46.7650 148° Southeast 232 267 6,700 -840 Descending FlightAware
06:08AM -23.3510 -46.7530 149° Southeast 226 260 6,400 -900 Descending FlightAware
06:09AM -23.3700 -46.7410 150° Southeast 221 254 6,100 -840 Descending FlightAware
06:09AM -23.3860 -46.7310 150° Southeast 217 250 5,900 -720 Descending FlightAware
06:09AM -23.4080 -46.7180 152° Southeast 215 247 5,600 -660 Descending FlightAware
06:10AM -23.4260 -46.7060 149° Southeast 215 247 5,400 -780 Descending FlightAware
06:10AM -23.4430 -46.6950 149° Southeast 215 247 5,100 -840 Descending FlightAware
06:10AM -23.4480 -46.6890 132° Southeast 217 250 5,000 -420 Descending FlightAware
06:10AM -23.4530 -46.6820 128° Southeast 220 253 5,000 -480 Level FlightAware
06:11AM -23.4600 -46.6650 114° Southeast 221 254 4,800 -480 Descending FlightAware
06:11AM -23.4700 -46.6420 115° Southeast 218 251 4,700 -420 Descending FlightAware
06:11AM -23.4730 -46.6330 110° East 217 250 4,600 -720 Descending FlightAware
06:11AM -23.4740 -46.6250 98° East 212 244 4,500 -540 Descending FlightAware
06:12AM -23.4690 -46.5980 79° East 196 226 4,300 -660 Descending FlightAware
06:12AM -23.4640 -46.5790 74° East 186 214 4,000 -1,080 Descending FlightAware
06:12AM -23.4590 -46.5610 73° East 169 194 3,600 -900 Descending FlightAware
06:13AM -23.4550 -46.5470 73° East 156 180 3,400 -720 Descending FlightAware
06:13AM -23.4500 -46.5290 73° East 149 171 3,100 -840 Descending FlightAware
06:14AM -23.4450 -46.5090 75° East 145 167 2,700 -780 Descending FlightAware
06:14AM -23.4410 -46.4940 74° East 152 175 2,500 -720 Descending FlightAware
06:14AM -23.4380 -46.4850 70° East 149 171 2,300 -840 Descending FlightAware